Terminal Aerodrome Forecast
Issued by NWS Wilmington, OH

Current Version | Previous Version | Text Only | Print | Product List | Glossary Off
Versions: 1 2 3 4 5 6 7 8 9 10 11 12 13 14 15 16 17

198
FTUS41 KILN 261739
TAFDAY
TAF
KDAY 261739Z 2618/2718 19011KT P6SM -SHRA SCT025 OVC035
     FM261830 19011KT P6SM VCSH SCT025 OVC035
     FM262100 19011KT 6SM -SHRA BR VCTS SCT025CB OVC035
      TEMPO 2622/2624 VRB10G18KT 2SM -TSRA BR BKN015CB
     FM270000 20006KT P6SM VCSH SCT025 OVC035
     FM270400 22007KT P6SM SCT025 BKN035
     FM270900 23006KT P6SM BKN025
     FM271400 20009KT P6SM SCT025 BKN035=

USA.gov is the U.S. government's official web portal to all federal, state and local government web resources and services.